• Join FlightAware (Why Join?)
  • Login
  • US Flag 
08:16AM EDT


 

Airport Tracker/Info


-or-


 

Live Flight TrackerFlight Track Log ✈ N498QS ✈ 06-May-2013 ✈ KTUS - KSFO

Flight Track Log - Related Links

Times and Time Zones

All times are in EDT time to prevent confusion due to time zone crossing. See the N498QS flight status page for this flight to view local times or setup timezone preferences in your user account.

Time Position Orientation Groundspeed Altitude Reporting Facility
EDT Latitude Longitude Course Direction KTS MPH feet Rate Location/Type
12:34PM 32.1061 -110.9267 151° Southeast 192 221 3,600  Level Albuquerque Center
12:36PM 32.0211 -110.8706 151° Southeast 250 288 8,500 2,940 Climbing Albuquerque Center
12:37PM 32.0178 -110.9531 267° West 299 344 11,800 3,000 Climbing Albuquerque Center
12:38PM 32.0600 -111.0347 301° West 292 336 14,700 2,520 Climbing Albuquerque Center
12:40PM 32.1739 -111.2517 302° West 354 407 20,000 2,460 Climbing Los Angeles Center
12:41PM 32.2278 -111.3531 302° West 363 418 22,400 2,340 Climbing Albuquerque Center
12:42PM 32.2842 -111.4606 302° West 377 434 24,600 2,040 Climbing Albuquerque Center
12:43PM 32.3433 -111.5686 303° West 388 447 26,700 1,740 Climbing Albuquerque Center
12:44PM 32.4058 -111.6783 304° West 398 458 28,200 1,440 Climbing Albuquerque Center
12:47PM 32.4823 -111.8313 301° West  Level FlightAware Approximate
12:47PM 32.6433 -112.0078 301° West 413 475 33,000  Level Los Angeles Center
12:48PM 32.7389 -112.0544 338° Northwest 427 491 33,000  Level Albuquerque Center
12:49PM 32.8253 -112.1486 318° Northwest 417 480 33,000 480 Level Albuquerque Center
12:50PM 32.9222 -112.2542 318° Northwest 421 484 34,000 300 Climbing Albuquerque Center
12:52PM 32.9722 -112.4211 302° West  Level FlightAware Approximate
12:52PM 33.1081 -112.4575 302° West 414 476 34,000  Level Los Angeles Center
12:53PM 33.1856 -112.5400 318° Northwest 416 479 34,000  Level Albuquerque Center
12:54PM 33.2567 -112.6258 315° West 412 474 34,000  Level Albuquerque Center
12:55PM 33.3119 -112.7692 295° West 401 461 34,000 120 Level Albuquerque Center
12:56PM 33.3481 -112.8936 289° West 398 458 34,300 1,200 Climbing Albuquerque Center
12:58PM 33.4194 -113.1350 290° West 388 447 37,800 1,500 Climbing Albuquerque Center
12:59PM 33.4561 -113.2578 290° West 391 450 39,000 1,500 Climbing Albuquerque Center
01:01PM 33.4972 -113.3997 289° West 395 455 40,900 1,140 Climbing Albuquerque Center
01:03PM 33.5656 -113.6350 289° West 377 434 42,600 480 Climbing Albuquerque Center
01:05PM 33.6361 -113.8803 289° West 388 447 43,000 60 Climbing Albuquerque Center
01:07PM 33.7131 -114.1828 287° West 421 484 43,000  Level Los Angeles Center
01:08PM 33.7431 -114.3081 286° West 421 484 43,000  Level Albuquerque Center
01:09PM 33.7892 -114.4811 288° West 429 494 43,000  Level Los Angeles Center
01:10PM 33.8239 -114.6178 287° West 429 494 43,000  Level Los Angeles Center
01:11PM 33.8581 -114.7553 287° West 430 495 43,000  Level Los Angeles Center
01:13PM 33.9048 -114.9439 287° West  Level FlightAware Approximate
01:13PM 33.9269 -115.0300 287° West 432 497 43,000  Level Los Angeles Center
01:14PM 33.9606 -115.1689 286° West 432 497 43,000  Level Los Angeles Center
01:15PM 34.0003 -115.3311 286° West 425 489 43,000  Level Los Angeles Center
01:17PM 34.0414 -115.5013 286° West  Level FlightAware Approximate
01:20PM 34.1714 -116.0408 285° West 421 484 43,000  Level Los Angeles Center
01:22PM 34.2464 -116.1671 306° West  Level Estimated
01:24PM 34.2532 -116.3975 285° West  Level FlightAware Approximate
01:24PM 34.2972 -116.5783 305° West 416 479 43,000  Level Los Angeles Center
01:25PM 34.2822 -116.5262 285° West  Level FlightAware Approximate
01:26PM 34.3257 -116.7095 285° West  Level FlightAware Approximate
01:26PM 34.3110 -116.6549 285° West  Level FlightAware Approximate
01:28PM 34.3994 -117.0214 285° West 429 494 43,000  Level Los Angeles Center
01:29PM 34.6936 -116.9294 306° West  Level Estimated
01:29PM 34.4303 -117.1600 285° West 428 493 43,000  Level Los Angeles Center
01:30PM 34.7571 -117.0389 305° West  Level Estimated
01:31PM 34.4908 -117.4306 285° West 417 480 43,000  Level Los Angeles Center
01:32PM 34.5217 -117.5678 285° West 420 483 43,000  Level Los Angeles Center
01:33PM 34.5231 -117.6135 285° West  Level FlightAware Approximate
01:33PM 34.5578 -117.7339 285° West 423 487 43,000  Level Los Angeles Center
01:35PM 34.5989 -117.9604 282° West  Level FlightAware Approximate
01:36PM 34.6717 -118.1350 300° West 422 486 43,000  Level Los Angeles Center
01:37PM 34.7281 -118.2611 299° West 423 487 43,000  Level Los Angeles Center
01:38PM 34.7847 -118.3878 299° West 425 489 43,000  Level Los Angeles Center
01:40PM 34.9022 -118.6483 299° West 418 481 43,000  Level Los Angeles Center
01:42PM 35.0523 -118.7088 300° West  Level FlightAware Approximate
01:42PM 34.9736 -118.8301 296° West  Level FlightAware Approximate
01:42PM 35.0253 -118.9244 296° West 426 490 43,000  Level Los Angeles Center
01:44PM 35.0871 -119.1019 293° West  Level FlightAware Approximate
01:44PM 35.1367 -119.1775 293° West 425 489 43,000  Level Los Angeles Center
01:45PM 35.1931 -119.3042 299° West 427 491 43,000  Level Los Angeles Center
01:46PM 35.2486 -119.4294 299° West 424 488 43,000  Level Los Angeles Center
01:48PM 35.3697 -119.7103 298° West 428 493 43,000  Level Los Angeles Center
01:49PM 35.4258 -119.8392 298° West 430 495 43,000  Level Los Angeles Center
01:50PM 35.4478 -119.8906 298° West 434 499 43,000  Level Oakland Center
01:51PM 35.5039 -120.0228 298° West 441 507 43,000  Level Oakland Center
01:52PM 35.5611 -120.1533 298° West 441 507 43,000  Level Oakland Center
01:53PM 35.6150 -120.2842 297° West 438 504 43,000  Level Oakland Center
01:54PM 35.6697 -120.4139 297° West 435 501 43,000 -780 Level Oakland Center
01:56PM 35.7956 -120.6358 305° West 451 519 40,900 -1,500 Descending Los Angeles Center
01:56PM 35.8289 -120.6814 312° West 456 525 40,000 -2,220 Descending Oakland Center
01:58PM 35.9958 -120.9111 312° West 451 519 35,800 -2,100 Descending Oakland Center
01:59PM 36.0789 -121.0278 311° West 452 520 33,600 -2,160 Descending Oakland Center
02:00PM 36.1639 -121.1458 312° West 458 527 31,500 -2,160 Descending Oakland Center
02:01PM 36.2514 -121.2644 312° West 465 535 29,200 -2,160 Descending Oakland Center
02:02PM 36.3342 -121.3825 311° West 459 528 27,100 -2,280 Descending Oakland Center
02:03PM 36.4294 -121.5206 311° West 443 510 24,600 -2,280 Descending Oakland Center
02:04PM 36.5097 -121.6294 313° West 432 497 22,500 -1,920 Descending Oakland Center
02:05PM 36.6167 -121.7833 311° West 434 499 20,000 -1,380 Descending Northern Cal TRACON
02:06PM 36.7000 -121.8667 321° Northwest 493 567 19,200 -1,620 Descending Northern Cal TRACON
02:08PM 36.9000 -121.9833 335° Northwest 380 437 15,200 -1,920 Descending Northern Cal TRACON
02:09PM 36.9625 -122.0100 341° North 375 432 14,000 -1,800 Descending Oakland Center
02:10PM 37.0603 -122.0467 343° North 365 420 12,100 -1,320 Descending Oakland Center
02:12PM 37.2667 -122.1000 348° North 278 320 9,800 -1,260 Descending Northern Cal TRACON
02:13PM 37.3178 -122.1150 347° North 270 311 8,300 -1,740 Descending Oakland Center
02:15PM 37.4515 -122.1515 322° Northwest  Level FlightAware Approximate
02:15PM 37.4567 -122.1583 322° Northwest 254 292 4,900  Level Oakland Center
02:17PM 37.5636 -122.2272 333° Northwest 222 255 1,800 -1,140 Descending Oakland Center
02:19PM 37.6167 -122.3500 299° West 147 169 200 -540 Descending Northern Cal TRACON
02:20PM 37.6225 -122.3869 281° West 175 201 200  Level Oakland Center
02:22PM 37.6167 -122.3667 90° East  Level FlightAware Approximate
02:29PM 37.6191 -122.3752 90° East  Level Estimated